Time;durP1;ratioP1;P1;durP2;ratioP2;P2;SDS_P1;SDS_P2;PMS_P1;PMS_P2;Temp;Humidity;BMP_temperature;BMP_pressure;BME280_temperature;BME280_humidity;BME280_pressure;Samples;Min_cycle;Max_cycle;Signal;HPM_P1;HPM_P2
2021/03/07 00:00:29;;;;;;;9.63;2.60;;;1.90;99.90;;;;;;5005592;28;20448;-64
2021/03/07 00:02:55;;;;;;;8.45;2.90;;;1.90;99.90;;;;;;5008467;28;20022;-64
2021/03/07 00:05:21;;;;;;;8.30;3.28;;;1.80;99.90;;;;;;4989728;28;20088;-64
2021/03/07 00:07:48;;;;;;;7.97;2.70;;;1.70;99.90;;;;;;5008541;28;20113;-64
2021/03/07 00:10:16;;;;;;;6.18;2.40;;;1.60;99.90;;;;;;5003162;28;20030;-64
2021/03/07 00:12:42;;;;;;;6.47;2.40;;;1.50;99.90;;;;;;4998608;28;20041;-64
2021/03/07 00:15:10;;;;;;;7.60;2.58;;;1.40;99.90;;;;;;4993629;28;20100;-64
2021/03/07 00:17:36;;;;;;;5.25;2.60;;;1.30;99.90;;;;;;5002991;28;20038;-64
2021/03/07 00:20:04;;;;;;;8.27;2.80;;;1.30;99.90;;;;;;5007079;28;20091;-64
2021/03/07 00:22:29;;;;;;;6.55;2.65;;;1.20;99.90;;;;;;5007550;28;20121;-66
2021/03/07 00:24:55;;;;;;;9.48;3.00;;;1.20;99.90;;;;;;5008070;28;20110;-64
2021/03/07 00:27:21;;;;;;;12.00;3.72;;;1.30;99.90;;;;;;5006790;28;20128;-64
2021/03/07 00:29:46;;;;;;;7.20;3.05;;;1.30;99.90;;;;;;4998547;28;20498;-64
2021/03/07 00:32:12;;;;;;;7.88;3.15;;;1.30;99.90;;;;;;4998906;28;20078;-64
2021/03/07 00:34:37;;;;;;;6.60;2.55;;;1.20;99.90;;;;;;4992876;28;20571;-64
2021/03/07 00:37:04;;;;;;;8.63;3.65;;;1.10;99.90;;;;;;5008500;28;20042;-64
2021/03/07 00:39:30;;;;;;;6.97;2.63;;;1.00;99.90;;;;;;5008403;28;20030;-64
2021/03/07 00:42:00;;;;;;;6.22;2.85;;;0.90;99.90;;;;;;4975792;28;20495;-64
2021/03/07 00:44:26;;;;;;;8.27;3.35;;;0.90;99.90;;;;;;5001910;28;20160;-64
2021/03/07 00:46:52;;;;;;;10.48;3.20;;;0.90;99.90;;;;;;5004174;28;20038;-64
2021/03/07 00:49:25;;;;;;;5.38;2.17;;;0.80;99.90;;;;;;5007726;28;20426;-64
2021/03/07 00:51:50;;;;;;;6.95;2.85;;;0.80;99.90;;;;;;5003364;28;20043;-65
2021/03/07 00:54:16;;;;;;;7.38;2.80;;;0.80;99.90;;;;;;5002658;28;20034;-64
2021/03/07 00:56:41;;;;;;;10.55;2.92;;;0.80;99.90;;;;;;4991529;28;20041;-64
2021/03/07 00:59:07;;;;;;;14.80;4.03;;;0.70;99.90;;;;;;5009585;28;20042;-64
2021/03/07 01:01:33;;;;;;;5.53;2.78;;;0.70;99.90;;;;;;5004254;28;20030;-64
2021/03/07 01:03:59;;;;;;;7.50;2.85;;;0.60;99.90;;;;;;5010938;28;20087;-64
2021/03/07 01:06:25;;;;;;;6.13;2.50;;;0.60;99.90;;;;;;5015194;28;20061;-65
2021/03/07 01:08:50;;;;;;;4.82;2.47;;;0.60;99.90;;;;;;5024554;28;20564;-65
2021/03/07 01:11:16;;;;;;;7.30;2.70;;;0.60;99.90;;;;;;5007472;28;20037;-65
2021/03/07 01:13:42;;;;;;;8.45;2.88;;;0.60;99.90;;;;;;5004599;28;20061;-65
2021/03/07 01:16:07;;;;;;;8.07;2.75;;;0.60;99.90;;;;;;5009908;28;20109;-64
2021/03/07 01:18:33;;;;;;;6.32;2.75;;;0.50;99.90;;;;;;5005557;28;20049;-64
2021/03/07 01:20:59;;;;;;;6.72;2.63;;;0.50;99.90;;;;;;4991219;28;20037;-64
2021/03/07 01:23:26;;;;;;;7.35;2.95;;;0.50;99.90;;;;;;5008335;28;20038;-64
2021/03/07 01:25:52;;;;;;;7.57;2.85;;;0.50;99.90;;;;;;5008559;28;20038;-64
2021/03/07 01:28:17;;;;;;;6.45;2.33;;;0.50;99.90;;;;;;5008812;28;20389;-64
2021/03/07 01:30:43;;;;;;;5.47;2.90;;;0.50;99.90;;;;;;5008237;28;20454;-64
2021/03/07 01:33:09;;;;;;;8.45;3.08;;;0.40;99.90;;;;;;5008597;28;20034;-64
2021/03/07 01:35:35;;;;;;;5.72;2.38;;;0.40;99.90;;;;;;5008413;28;20037;-64
2021/03/07 01:38:01;;;;;;;5.57;2.70;;;0.40;99.90;;;;;;5008266;28;20517;-64
2021/03/07 01:40:34;;;;;;;8.15;2.72;;;0.40;99.90;;;;;;5008574;28;20029;-64
2021/03/07 01:43:01;;;;;;;7.40;2.38;;;0.40;99.90;;;;;;5000083;28;20030;-64
2021/03/07 01:45:29;;;;;;;14.23;3.10;;;0.30;99.90;;;;;;4990817;28;20034;-64
2021/03/07 01:47:58;;;;;;;6.72;2.80;;;0.30;99.90;;;;;;5007706;28;20057;-65
2021/03/07 01:50:26;;;;;;;5.32;2.40;;;0.30;99.90;;;;;;5008061;28;20030;-64
2021/03/07 01:52:53;;;;;;;6.88;2.90;;;0.30;99.90;;;;;;5008021;28;20364;-64
2021/03/07 01:55:20;;;;;;;7.32;2.70;;;0.30;99.90;;;;;;5008550;28;20121;-64
2021/03/07 01:57:47;;;;;;;9.05;3.15;;;0.30;99.90;;;;;;5008345;28;20044;-64
2021/03/07 02:00:14;;;;;;;10.52;2.50;;;0.20;99.90;;;;;;5008110;28;20109;-64
2021/03/07 02:02:40;;;;;;;7.63;2.83;;;0.20;99.90;;;;;;5011494;28;20045;-64
2021/03/07 02:05:11;;;;;;;5.35;2.65;;;0.10;99.90;;;;;;5017751;28;20026;-64
2021/03/07 02:07:39;;;;;;;13.38;3.88;;;0.10;99.90;;;;;;5021111;28;20034;-64
2021/03/07 02:10:06;;;;;;;6.85;2.70;;;0.10;99.90;;;;;;5014040;28;20476;-64
2021/03/07 02:12:34;;;;;;;5.18;2.25;;;0.10;99.90;;;;;;5008365;28;20233;-64
2021/03/07 02:15:01;;;;;;;5.75;2.40;;;0.00;99.90;;;;;;5008006;28;20494;-64
2021/03/07 02:17:26;;;;;;;5.22;2.38;;;0.00;99.90;;;;;;5003791;28;20395;-64
2021/03/07 02:19:53;;;;;;;8.32;3.08;;;0.00;99.90;;;;;;5008069;28;20030;-64
2021/03/07 02:22:36;;;;;;;7.88;2.47;;;-0.10;99.90;;;;;;4990141;28;20618;-64
2021/03/07 02:25:06;;;;;;;5.93;2.25;;;-0.10;99.90;;;;;;5000978;28;20029;-64
2021/03/07 02:27:33;;;;;;;4.93;2.42;;;-0.10;99.90;;;;;;4990329;28;20376;-64
2021/03/07 02:29:58;;;;;;;4.93;2.33;;;-0.10;99.90;;;;;;5007398;28;20033;-64
2021/03/07 02:32:26;;;;;;;6.88;2.42;;;-0.20;99.90;;;;;;5007969;28;20042;-64
2021/03/07 02:34:57;;;;;;;6.07;2.75;;;-0.20;99.90;;;;;;5010100;28;20034;-64
2021/03/07 02:37:23;;;;;;;5.03;2.30;;;-0.20;99.90;;;;;;5014150;28;20045;-64
2021/03/07 02:39:50;;;;;;;4.78;2.13;;;-0.20;99.90;;;;;;5014229;28;20065;-64
2021/03/07 02:42:20;;;;;;;6.55;2.30;;;-0.30;99.90;;;;;;4996333;28;20121;-64
2021/03/07 02:45:18;;;;;;;5.75;2.55;;;-0.30;99.90;;;;;;5006161;28;20081;-64
2021/03/07 02:47:47;;;;;;;5.18;2.00;;;-0.30;99.90;;;;;;4996093;28;20042;-64
2021/03/07 02:50:18;;;;;;;6.35;2.22;;;-0.30;99.90;;;;;;5014530;28;20034;-64
2021/03/07 02:52:49;;;;;;;4.65;2.63;;;-0.40;99.90;;;;;;5014147;28;20034;-64
2021/03/07 02:55:17;;;;;;;8.18;2.20;;;-0.40;99.90;;;;;;5014405;28;20490;-64
2021/03/07 02:57:46;;;;;;;6.78;2.30;;;-0.40;99.90;;;;;;4996260;28;20534;-64
2021/03/07 03:00:12;;;;;;;9.32;2.88;;;-0.40;99.90;;;;;;5014040;28;20049;-64
2021/03/07 03:02:40;;;;;;;7.22;2.08;;;-0.50;99.90;;;;;;5013526;28;20121;-64
2021/03/07 03:05:08;;;;;;;4.65;2.63;;;-0.50;99.90;;;;;;5013862;28;20046;-64
2021/03/07 03:07:34;;;;;;;10.45;2.88;;;-0.50;99.90;;;;;;4996048;28;20038;-64
2021/03/07 03:10:03;;;;;;;8.52;3.85;;;-0.50;99.90;;;;;;4996519;28;20033;-64
2021/03/07 03:12:31;;;;;;;4.55;2.63;;;-0.50;99.90;;;;;;5013792;28;20068;-64
2021/03/07 03:14:58;;;;;;;6.22;2.63;;;-0.60;99.90;;;;;;5013808;28;20057;-64
2021/03/07 03:17:25;;;;;;;7.18;3.15;;;-0.60;99.90;;;;;;5010554;28;20092;-64
2021/03/07 03:19:52;;;;;;;9.65;2.28;;;-0.60;99.90;;;;;;5013489;28;20050;-64
2021/03/07 03:22:19;;;;;;;7.20;2.50;;;-0.60;99.90;;;;;;5013968;28;20402;-64
2021/03/07 03:24:45;;;;;;;5.43;2.67;;;-0.60;99.90;;;;;;5013291;28;20038;-64
2021/03/07 03:27:11;;;;;;;6.25;1.95;;;-0.60;99.90;;;;;;5014074;28;20344;-64
2021/03/07 03:29:39;;;;;;;4.50;1.85;;;-0.70;99.90;;;;;;5013374;28;20037;-64
2021/03/07 03:32:05;;;;;;;6.78;2.95;;;-0.60;99.90;;;;;;5013799;28;20120;-64
2021/03/07 03:34:30;;;;;;;11.25;3.10;;;-0.60;99.90;;;;;;5013023;28;20033;-65
2021/03/07 03:36:56;;;;;;;10.43;2.35;;;-0.60;99.90;;;;;;5014261;28;20034;-64
2021/03/07 03:39:24;;;;;;;10.82;2.88;;;-0.60;99.90;;;;;;5005873;28;20054;-64
2021/03/07 03:42:10;;;;;;;7.85;2.05;;;-0.60;99.90;;;;;;5013016;28;20045;-64
2021/03/07 03:44:39;;;;;;;12.63;2.47;;;-0.60;99.90;;;;;;5008535;28;20125;-64
2021/03/07 03:47:09;;;;;;;7.47;2.53;;;-0.50;99.90;;;;;;5010703;28;20395;-64
2021/03/07 03:49:43;;;;;;;5.97;2.40;;;-0.50;99.90;;;;;;5010422;28;20033;-65
2021/03/07 03:52:10;;;;;;;4.70;2.25;;;-0.50;99.90;;;;;;5010699;28;20038;-64
2021/03/07 03:54:44;;;;;;;8.68;2.30;;;-0.50;99.90;;;;;;5009805;28;20033;-64
2021/03/07 03:57:12;;;;;;;5.97;3.05;;;-0.40;99.90;;;;;;5010828;28;20070;-64
2021/03/07 03:59:39;;;;;;;7.35;3.20;;;-0.40;99.90;;;;;;4992341;28;20030;-64
2021/03/07 04:02:05;;;;;;;7.32;2.45;;;-0.30;99.90;;;;;;4992990;28;20030;-64
2021/03/07 04:04:33;;;;;;;8.50;2.50;;;-0.30;99.90;;;;;;5010404;28;20041;-65
2021/03/07 04:06:59;;;;;;;8.15;2.95;;;-0.20;99.90;;;;;;5010049;28;20030;-64
2021/03/07 04:09:27;;;;;;;10.98;2.92;;;-0.20;99.90;;;;;;5010523;28;20026;-64
2021/03/07 04:11:53;;;;;;;9.55;2.50;;;-0.20;99.90;;;;;;5010859;28;20046;-64
2021/03/07 04:14:20;;;;;;;6.63;2.90;;;-0.10;99.90;;;;;;5011471;28;20032;-64
2021/03/07 04:16:49;;;;;;;9.95;2.53;;;-0.10;99.90;;;;;;5012955;28;20037;-65
2021/03/07 04:19:16;;;;;;;6.82;2.38;;;0.00;99.90;;;;;;5017045;28;20058;-64
2021/03/07 04:21:43;;;;;;;8.15;2.70;;;0.00;99.90;;;;;;5016961;28;20164;-64
2021/03/07 04:24:09;;;;;;;4.97;2.50;;;0.10;99.90;;;;;;5016008;28;20033;-69
2021/03/07 04:26:35;;;;;;;7.20;2.67;;;0.10;99.90;;;;;;5000175;28;20107;-64
2021/03/07 04:29:02;;;;;;;5.43;2.55;;;0.10;99.90;;;;;;5009915;28;20382;-64
2021/03/07 04:31:28;;;;;;;7.43;2.53;;;0.10;99.90;;;;;;5010382;28;20038;-64
2021/03/07 04:33:53;;;;;;;7.88;3.00;;;0.20;99.90;;;;;;5009948;28;20403;-64
2021/03/07 04:36:19;;;;;;;6.43;2.22;;;0.20;99.90;;;;;;4993294;28;20064;-64
2021/03/07 04:38:44;;;;;;;7.07;2.63;;;0.30;99.90;;;;;;5010696;28;20114;-64
2021/03/07 04:41:11;;;;;;;5.80;2.33;;;0.30;99.90;;;;;;5009768;28;20034;-64
2021/03/07 04:43:53;;;;;;;7.93;2.88;;;0.40;99.90;;;;;;5010265;28;20088;-64
2021/03/07 04:46:24;;;;;;;11.77;2.75;;;0.40;99.90;;;;;;5003608;28;20390;-64
2021/03/07 04:48:50;;;;;;;5.32;2.58;;;0.40;99.90;;;;;;5004419;28;20111;-64
2021/03/07 04:51:16;;;;;;;6.82;3.22;;;0.50;99.90;;;;;;5011926;28;20126;-65
2021/03/07 04:53:42;;;;;;;7.90;3.03;;;0.50;99.90;;;;;;5024851;28;20034;-66
2021/03/07 04:56:08;;;;;;;4.03;2.15;;;0.50;99.90;;;;;;5024929;28;20076;-65
2021/03/07 04:58:34;;;;;;;5.68;2.63;;;0.60;99.90;;;;;;5012263;28;20705;-65
2021/03/07 05:01:00;;;;;;;10.25;2.88;;;0.60;99.90;;;;;;4999697;28;20038;-65
2021/03/07 05:03:25;;;;;;;5.10;2.30;;;0.60;99.90;;;;;;5006676;28;20383;-65
2021/03/07 05:05:51;;;;;;;6.72;3.30;;;0.70;99.90;;;;;;5009086;28;20491;-65
2021/03/07 05:08:16;;;;;;;8.45;3.30;;;0.70;99.90;;;;;;5005466;28;20022;-64
2021/03/07 05:10:42;;;;;;;8.35;3.03;;;0.70;99.90;;;;;;5008586;28;20042;-64
2021/03/07 05:13:08;;;;;;;7.25;3.05;;;0.70;99.90;;;;;;5009320;28;20060;-65
2021/03/07 05:15:33;;;;;;;8.18;3.15;;;0.80;99.90;;;;;;5008598;28;20044;-64
2021/03/07 05:17:59;;;;;;;13.73;3.35;;;0.80;99.90;;;;;;5009378;28;20057;-64
2021/03/07 05:20:25;;;;;;;7.40;3.33;;;0.80;99.90;;;;;;5009099;28;20038;-64
2021/03/07 05:22:51;;;;;;;6.78;3.17;;;0.90;99.90;;;;;;5008441;28;20057;-64
2021/03/07 05:25:17;;;;;;;15.40;4.22;;;0.90;99.90;;;;;;5008889;28;20033;-64
2021/03/07 05:27:43;;;;;;;11.55;3.60;;;0.90;99.90;;;;;;4990964;28;20030;-64
2021/03/07 05:30:09;;;;;;;6.95;2.83;;;1.00;99.90;;;;;;5008759;28;20032;-64
2021/03/07 05:32:34;;;;;;;9.43;4.28;;;1.00;99.90;;;;;;5008205;28;20041;-64
2021/03/07 05:35:00;;;;;;;8.95;3.13;;;1.00;99.90;;;;;;5008361;28;20128;-64
2021/03/07 05:37:25;;;;;;;6.03;3.13;;;1.00;99.90;;;;;;5008518;28;20096;-64
2021/03/07 05:39:51;;;;;;;9.80;3.20;;;1.10;99.90;;;;;;5008124;28;20053;-64
2021/03/07 05:42:17;;;;;;;9.60;3.72;;;1.10;99.90;;;;;;5008642;28;20042;-64
2021/03/07 05:44:43;;;;;;;8.95;4.03;;;1.10;99.90;;;;;;5008010;28;20038;-64
2021/03/07 05:47:09;;;;;;;8.23;3.67;;;1.20;99.90;;;;;;5008421;28;20042;-64
2021/03/07 05:49:35;;;;;;;8.00;3.90;;;1.20;99.90;;;;;;5008569;28;20041;-64
2021/03/07 05:52:00;;;;;;;8.35;4.03;;;1.20;99.90;;;;;;5007796;28;20049;-66
2021/03/07 05:54:27;;;;;;;5.72;3.28;;;1.30;99.90;;;;;;5014379;28;20029;-65
2021/03/07 05:56:54;;;;;;;8.02;3.85;;;1.30;99.90;;;;;;5012170;28;20046;-65
2021/03/07 05:59:20;;;;;;;6.07;3.33;;;1.30;99.90;;;;;;5011876;28;20088;-64
2021/03/07 06:01:45;;;;;;;7.57;3.35;;;1.30;99.90;;;;;;5008058;28;20045;-65
2021/03/07 06:04:11;;;;;;;6.03;3.17;;;1.30;99.90;;;;;;5008164;28;20430;-64
2021/03/07 06:06:37;;;;;;;6.78;3.78;;;1.30;99.90;;;;;;5008068;28;20038;-64
2021/03/07 06:09:16;;;;;;;7.10;3.75;;;1.40;99.90;;;;;;5007558;28;20030;-64
2021/03/07 06:11:42;;;;;;;9.32;3.80;;;1.40;99.90;;;;;;5008200;28;20467;-64
2021/03/07 06:14:27;;;;;;;9.70;4.43;;;1.40;99.90;;;;;;4989981;28;20062;-65
2021/03/07 06:17:01;;;;;;;7.72;4.28;;;1.40;99.90;;;;;;5007367;28;20038;-64
2021/03/07 06:19:27;;;;;;;11.63;3.78;;;1.40;99.90;;;;;;5008172;28;20056;-64
2021/03/07 06:21:53;;;;;;;10.07;4.45;;;1.50;99.90;;;;;;5007340;28;20476;-65
2021/03/07 06:24:39;;;;;;;10.35;4.50;;;1.50;99.90;;;;;;4990425;28;20479;-65
2021/03/07 06:27:10;;;;;;;7.45;3.88;;;1.50;99.90;;;;;;5007356;28;20038;-64
2021/03/07 06:29:52;;;;;;;5.57;3.70;;;1.50;99.90;;;;;;5007951;28;20030;-64
2021/03/07 06:32:18;;;;;;;8.85;4.00;;;1.50;99.90;;;;;;4973605;28;20057;-64
2021/03/07 06:34:48;;;;;;;7.05;3.60;;;1.60;99.90;;;;;;4987046;28;20125;-64
2021/03/07 06:37:14;;;;;;;5.55;3.22;;;1.60;99.90;;;;;;4992097;28;20148;-64
2021/03/07 06:39:40;;;;;;;6.97;4.03;;;1.60;99.90;;;;;;5008130;28;20089;-64
2021/03/07 06:42:07;;;;;;;12.02;4.13;;;1.60;99.90;;;;;;5007156;28;20038;-65
2021/03/07 06:44:34;;;;;;;7.85;4.20;;;1.70;99.90;;;;;;5007785;28;20030;-64
2021/03/07 06:47:11;;;;;;;6.07;3.55;;;1.70;99.90;;;;;;5007350;28;20521;-65
2021/03/07 06:49:38;;;;;;;7.70;3.95;;;1.70;99.90;;;;;;5008426;28;20034;-64
2021/03/07 06:52:20;;;;;;;7.18;3.70;;;1.80;99.90;;;;;;5007509;28;20077;-64
2021/03/07 06:55:12;;;;;;;8.07;4.22;;;1.80;99.90;;;;;;5002696;28;20038;-64
2021/03/07 06:57:37;;;;;;;8.65;4.18;;;1.90;99.90;;;;;;5007313;28;20125;-64
2021/03/07 07:00:07;;;;;;;7.30;3.85;;;1.90;99.90;;;;;;5007739;28;20121;-64
2021/03/07 07:02:33;;;;;;;7.27;4.10;;;1.90;99.90;;;;;;4995122;28;20054;-64
2021/03/07 07:04:58;;;;;;;9.75;4.15;;;1.90;99.90;;;;;;4995358;28;20356;-64
2021/03/07 07:07:25;;;;;;;10.75;4.35;;;2.00;99.90;;;;;;4993709;28;20045;-64
2021/03/07 07:10:06;;;;;;;12.90;4.88;;;2.00;99.90;;;;;;4994749;28;20042;-64
2021/03/07 07:12:32;;;;;;;8.98;4.30;;;2.00;99.90;;;;;;4998987;28;20041;-64
2021/03/07 07:15:05;;;;;;;10.20;5.00;;;2.00;99.90;;;;;;5002063;28;20128;-64
2021/03/07 07:17:31;;;;;;;7.93;3.90;;;2.10;99.90;;;;;;4984084;28;20403;-64
2021/03/07 07:19:57;;;;;;;6.35;4.05;;;2.10;99.90;;;;;;4977680;28;20042;-64
2021/03/07 07:22:22;;;;;;;11.35;4.72;;;2.20;99.90;;;;;;5008731;28;20045;-65
2021/03/07 07:24:49;;;;;;;8.75;4.43;;;2.20;99.90;;;;;;5002356;28;20521;-64
2021/03/07 07:27:15;;;;;;;11.10;4.20;;;2.30;99.90;;;;;;5006793;28;20034;-64
2021/03/07 07:29:40;;;;;;;7.88;4.28;;;2.30;99.90;;;;;;5001074;28;20041;-64
2021/03/07 07:32:11;;;;;;;10.60;5.18;;;2.40;99.90;;;;;;5009046;28;20037;-64
2021/03/07 07:34:54;;;;;;;10.93;4.72;;;2.50;99.90;;;;;;5006492;28;20059;-65
2021/03/07 07:37:27;;;;;;;11.32;5.57;;;2.60;99.90;;;;;;5000694;28;20701;-65
2021/03/07 07:39:55;;;;;;;7.80;4.65;;;2.60;99.90;;;;;;4994087;28;20033;-64
2021/03/07 07:42:31;;;;;;;10.15;4.18;;;2.70;99.90;;;;;;5002616;28;20117;-64
2021/03/07 07:45:17;;;;;;;8.20;4.20;;;2.80;99.90;;;;;;4984130;28;20053;-65
2021/03/07 07:47:48;;;;;;;9.57;4.43;;;2.90;99.90;;;;;;4987970;28;20506;-65
2021/03/07 07:50:31;;;;;;;8.88;4.80;;;2.90;99.90;;;;;;5007842;28;20085;-65
2021/03/07 07:53:26;;;;;;;8.10;4.80;;;3.00;99.90;;;;;;4986459;28;20042;-65
2021/03/07 07:55:53;;;;;;;10.68;5.93;;;3.10;99.90;;;;;;4984116;28;20109;-65
2021/03/07 07:58:34;;;;;;;9.13;4.90;;;3.20;99.90;;;;;;5007653;28;20037;-65
2021/03/07 08:01:04;;;;;;;8.93;5.32;;;3.30;99.90;;;;;;5002740;28;20026;-65
2021/03/07 08:03:34;;;;;;;9.55;4.63;;;3.40;99.90;;;;;;5005675;28;20029;-64
2021/03/07 08:06:10;;;;;;;10.10;5.07;;;3.40;99.90;;;;;;5003582;28;20595;-64
2021/03/07 08:08:41;;;;;;;10.98;4.50;;;3.40;99.90;;;;;;4994777;28;20037;-70
2021/03/07 08:11:26;;;;;;;10.77;4.95;;;3.50;99.90;;;;;;4990943;28;20073;-64
2021/03/07 08:13:53;;;;;;;10.27;5.28;;;3.50;99.90;;;;;;5005637;28;20037;-65
2021/03/07 08:16:38;;;;;;;6.90;3.95;;;3.60;99.90;;;;;;5006968;28;20030;-64
2021/03/07 08:19:06;;;;;;;9.65;4.40;;;3.80;99.90;;;;;;4996004;28;20511;-64
2021/03/07 08:21:56;;;;;;;6.97;4.70;;;3.90;99.90;;;;;;4997741;28;20030;-65
2021/03/07 08:24:21;;;;;;;6.15;3.42;;;3.90;99.90;;;;;;4992504;28;20038;-66
2021/03/07 08:26:47;;;;;;;9.90;3.55;;;4.00;99.90;;;;;;4998575;28;20034;-65
2021/03/07 08:29:48;;;;;;;7.40;3.97;;;4.00;99.90;;;;;;4982206;28;20490;-65
2021/03/07 08:32:41;;;;;;;7.50;4.38;;;4.00;99.90;;;;;;4918090;29;20039;-65
2021/03/07 08:35:18;;;;;;;6.38;3.70;;;4.00;99.90;;;;;;4996532;23;20050;-65
2021/03/07 08:38:16;;;;;;;7.68;4.22;;;4.10;99.90;;;;;;5023026;28;20061;-65
2021/03/07 08:40:43;;;;;;;8.18;4.05;;;4.20;99.90;;;;;;5006019;28;20041;-65
2021/03/07 08:43:21;;;;;;;9.10;3.35;;;4.30;99.90;;;;;;5017694;28;20052;-64
2021/03/07 08:46:08;;;;;;;7.78;3.95;;;4.40;99.90;;;;;;5007125;28;20044;-64
2021/03/07 08:48:34;;;;;;;9.13;3.70;;;4.40;99.90;;;;;;5019597;28;20025;-65
2021/03/07 08:51:00;;;;;;;6.82;3.92;;;4.40;99.90;;;;;;5019397;28;20037;-64
2021/03/07 08:53:28;;;;;;;7.55;4.03;;;4.50;99.90;;;;;;5019092;28;20386;-64
2021/03/07 08:55:54;;;;;;;11.88;4.38;;;4.60;99.90;;;;;;5020659;28;20033;-64
2021/03/07 08:58:20;;;;;;;6.60;3.67;;;4.70;99.90;;;;;;5018050;28;20038;-65
2021/03/07 09:00:47;;;;;;;8.48;4.18;;;4.80;99.90;;;;;;5020084;28;20500;-64
2021/03/07 09:03:20;;;;;;;8.02;3.58;;;4.90;99.90;;;;;;5018216;28;20072;-65
2021/03/07 09:05:46;;;;;;;5.88;3.28;;;4.90;99.90;;;;;;5020855;28;20061;-65
2021/03/07 09:08:12;;;;;;;7.47;3.78;;;5.10;99.90;;;;;;5017529;28;20498;-65
2021/03/07 09:10:42;;;;;;;7.13;3.20;;;5.20;99.90;;;;;;5017597;28;20042;-65
2021/03/07 09:13:18;;;;;;;5.38;2.95;;;5.30;99.90;;;;;;5018100;28;20022;-65
2021/03/07 09:15:51;;;;;;;6.65;3.10;;;5.30;99.90;;;;;;5018237;28;20064;-66
2021/03/07 09:18:18;;;;;;;7.80;3.25;;;5.50;99.90;;;;;;5019760;28;20029;-64
2021/03/07 09:20:46;;;;;;;7.63;3.53;;;5.50;99.90;;;;;;5018407;28;20064;-65
2021/03/07 09:23:26;;;;;;;5.30;2.80;;;5.60;99.90;;;;;;5015417;28;20036;-63
2021/03/07 09:25:52;;;;;;;6.60;3.10;;;5.70;99.90;;;;;;5017710;28;20497;-65
2021/03/07 09:28:54;;;;;;;4.78;2.88;;;5.80;99.90;;;;;;5018507;28;20057;-66
2021/03/07 09:31:30;;;;;;;7.38;2.95;;;5.80;99.90;;;;;;5022795;28;20045;-65
2021/03/07 09:33:57;;;;;;;6.65;3.25;;;5.80;99.90;;;;;;5036688;28;21469;-66
2021/03/07 09:36:24;;;;;;;4.65;2.67;;;5.80;99.90;;;;;;5023756;28;20486;-64
2021/03/07 09:39:00;;;;;;;5.28;2.72;;;5.90;99.90;;;;;;5037729;28;20087;-65
2021/03/07 09:41:28;;;;;;;4.78;2.35;;;5.90;99.90;;;;;;5019624;28;20045;-65
2021/03/07 09:43:55;;;;;;;5.43;2.60;;;5.90;99.90;;;;;;5016309;28;20042;-65
2021/03/07 09:46:21;;;;;;;4.53;2.78;;;5.90;99.90;;;;;;5017143;28;20038;-65
2021/03/07 09:48:47;;;;;;;4.97;2.45;;;6.00;99.90;;;;;;5019308;28;20121;-65
2021/03/07 09:51:15;;;;;;;6.88;2.92;;;6.00;99.90;;;;;;5017491;28;20116;-65
2021/03/07 09:53:42;;;;;;;5.97;2.72;;;6.10;99.90;;;;;;5022230;28;20113;-64
2021/03/07 09:56:40;;;;;;;5.50;2.50;;;6.20;99.90;;;;;;5014312;28;20034;-65
2021/03/07 09:59:09;;;;;;;12.13;2.70;;;6.30;99.90;;;;;;4959199;28;20049;-65
2021/03/07 10:01:46;;;;;;;5.85;2.53;;;6.30;99.90;;;;;;5020211;28;20030;-64
2021/03/07 10:04:30;;;;;;;4.50;2.47;;;6.40;99.90;;;;;;5017370;28;20034;-65
2021/03/07 10:06:57;;;;;;;6.53;2.50;;;6.50;99.50;;;;;;5014604;28;20390;-65
2021/03/07 10:09:22;;;;;;;8.68;2.88;;;6.60;95.60;;;;;;5019984;28;20120;-65
2021/03/07 10:12:02;;;;;;;7.03;2.75;;;6.70;91.60;;;;;;5018451;28;20172;-65
2021/03/07 10:14:32;;;;;;;4.22;2.10;;;6.70;91.10;;;;;;5018759;28;20048;-66
2021/03/07 10:16:59;;;;;;;5.80;3.17;;;6.80;90.40;;;;;;5015272;28;20041;-65
2021/03/07 10:19:36;;;;;;;4.50;2.65;;;6.90;90.50;;;;;;5015984;28;20034;-65
2021/03/07 10:22:05;;;;;;;5.65;2.40;;;6.90;91.40;;;;;;5010500;28;20080;-66
2021/03/07 10:24:34;;;;;;;4.70;2.63;;;7.00;91.60;;;;;;5031813;28;20525;-66
2021/03/07 10:27:06;;;;;;;4.95;2.53;;;7.00;89.80;;;;;;5012923;28;20579;-65
2021/03/07 10:29:37;;;;;;;4.53;2.28;;;7.10;91.40;;;;;;5013649;28;20045;-65
2021/03/07 10:32:19;;;;;;;4.53;2.25;;;7.10;91.60;;;;;;5013745;28;20041;-64
2021/03/07 10:34:47;;;;;;;3.85;2.28;;;7.20;90.00;;;;;;5016332;28;20485;-65
2021/03/07 10:37:42;;;;;;;4.10;1.98;;;7.30;80.90;;;;;;5018689;28;20034;-65
2021/03/07 10:40:12;;;;;;;5.13;2.00;;;7.30;78.50;;;;;;5017346;28;20044;-65
2021/03/07 10:42:39;;;;;;;;;;;7.30;84.60;;;;;;5016699;28;20490;-65
2021/03/07 10:45:18;;;;;;;2.90;1.60;;;7.60;80.40;;;;;;5016020;28;19952;-64
2021/03/07 10:47:57;;;;;;;2.70;1.55;;;7.80;78.50;;;;;;5017189;28;20051;-65
2021/03/07 10:50:22;;;;;;;4.80;1.75;;;7.80;76.60;;;;;;5030216;28;20072;-65
2021/03/07 10:52:48;;;;;;;4.03;1.55;;;7.80;80.10;;;;;;5036317;28;20041;-65
2021/03/07 10:55:15;;;;;;;6.18;2.22;;;7.80;81.90;;;;;;5035906;28;20036;-65
2021/03/07 10:57:41;;;;;;;5.20;2.47;;;7.90;83.40;;;;;;5041605;28;20414;-65
2021/03/07 11:00:07;;;;;;;4.50;1.67;;;8.10;78.30;;;;;;5023292;28;20040;-66
2021/03/07 11:02:33;;;;;;;2.72;1.17;;;8.00;74.90;;;;;;5041869;28;20053;-65
2021/03/07 11:04:59;;;;;;;2.47;0.98;;;7.90;73.00;;;;;;5031786;28;20119;-65
2021/03/07 11:07:24;;;;;;;2.28;0.82;;;7.90;74.50;;;;;;5035181;28;20040;-65
2021/03/07 11:09:50;;;;;;;6.85;1.33;;;7.90;75.70;;;;;;5031778;28;20045;-65
2021/03/07 11:12:15;;;;;;;1.42;0.82;;;8.00;75.70;;;;;;5030494;28;20080;-65
2021/03/07 11:14:41;;;;;;;2.33;0.50;;;8.10;74.20;;;;;;5032959;28;20098;-65
2021/03/07 11:17:06;;;;;;;1.63;0.88;;;8.00;69.90;;;;;;5029453;28;20033;-65
2021/03/07 11:19:32;;;;;;;1.45;0.75;;;8.10;70.80;;;;;;5028915;28;20489;-65
2021/03/07 11:21:57;;;;;;;3.58;0.88;;;8.00;72.90;;;;;;5030093;28;20679;-69
2021/03/07 11:24:23;;;;;;;1.23;0.57;;;8.10;74.00;;;;;;5032888;28;20606;-66
2021/03/07 11:26:48;;;;;;;1.52;0.60;;;8.10;74.00;;;;;;5038360;28;20042;-65
2021/03/07 11:29:14;;;;;;;1.70;0.80;;;8.10;75.40;;;;;;5038344;28;20056;-66
2021/03/07 11:31:39;;;;;;;3.05;0.50;;;8.30;72.40;;;;;;5043085;28;20131;-65
2021/03/07 11:34:05;;;;;;;1.48;0.93;;;8.20;70.50;;;;;;5041522;28;20185;-65
2021/03/07 11:36:30;;;;;;;2.10;0.80;;;8.20;70.80;;;;;;5036343;28;20383;-65
2021/03/07 11:38:56;;;;;;;3.13;0.80;;;8.10;71.40;;;;;;5028506;28;20041;-65
2021/03/07 11:41:21;;;;;;;1.88;0.70;;;8.00;73.20;;;;;;5028639;28;20037;-65
2021/03/07 11:43:47;;;;;;;1.73;0.90;;;8.10;73.80;;;;;;5029543;28;20022;-65
2021/03/07 11:46:13;;;;;;;4.43;0.90;;;8.00;74.30;;;;;;5028813;28;20034;-65
2021/03/07 11:48:38;;;;;;;2.95;1.27;;;7.90;73.00;;;;;;5029561;28;20029;-65
2021/03/07 11:51:04;;;;;;;1.85;0.95;;;7.70;75.80;;;;;;5031834;28;20183;-65
2021/03/07 11:53:30;;;;;;;4.82;1.00;;;7.70;75.90;;;;;;5013756;28;20028;-66
2021/03/07 11:55:55;;;;;;;2.85;1.00;;;7.60;78.20;;;;;;5011005;28;20375;-65
2021/03/07 11:58:21;;;;;;;3.25;1.30;;;7.40;78.80;;;;;;5028858;28;20033;-65
2021/03/07 12:00:46;;;;;;;3.47;1.10;;;7.20;80.10;;;;;;5033861;28;20036;-65
2021/03/07 12:03:12;;;;;;;3.90;1.23;;;7.10;83.80;;;;;;5029768;28;20029;-65
2021/03/07 12:05:37;;;;;;;2.17;1.23;;;7.10;85.50;;;;;;5014395;28;20437;-66
2021/03/07 12:08:03;;;;;;;2.05;1.23;;;7.00;88.50;;;;;;5018018;28;20030;-65
2021/03/07 12:10:28;;;;;;;2.33;1.13;;;7.10;88.30;;;;;;5012121;28;20056;-65
2021/03/07 12:12:54;;;;;;;2.33;1.33;;;7.10;90.20;;;;;;5019329;28;20037;-66
2021/03/07 12:15:20;;;;;;;5.93;0.90;;;7.10;89.40;;;;;;5013192;28;20040;-65
2021/03/07 12:17:45;;;;;;;4.05;1.13;;;7.10;89.40;;;;;;5015410;28;20080;-65
2021/03/07 12:20:11;;;;;;;2.60;1.02;;;7.10;88.60;;;;;;5014084;28;20060;-65
2021/03/07 12:22:37;;;;;;;1.73;0.80;;;7.10;90.10;;;;;;5009354;28;20115;-66
2021/03/07 12:25:05;;;;;;;1.98;1.20;;;7.10;90.20;;;;;;5012787;28;20038;-66
2021/03/07 12:27:31;;;;;;;4.57;1.33;;;7.00;91.00;;;;;;5000061;28;20563;-65
2021/03/07 12:29:56;;;;;;;5.03;1.63;;;6.90;92.30;;;;;;5010095;28;20026;-66
2021/03/07 12:32:22;;;;;;;4.53;1.75;;;7.00;93.60;;;;;;5012682;28;20037;-65
2021/03/07 12:34:47;;;;;;;6.65;1.83;;;6.90;93.40;;;;;;4999551;28;20030;-65
2021/03/07 12:37:13;;;;;;;5.00;2.08;;;6.80;93.40;;;;;;5023490;28;20067;-66
2021/03/07 12:39:39;;;;;;;4.85;2.08;;;6.70;93.00;;;;;;5029325;28;20407;-65
2021/03/07 12:42:05;;;;;;;4.13;2.15;;;6.70;93.00;;;;;;5015420;28;20064;-65
2021/03/07 12:44:30;;;;;;;10.73;2.63;;;6.70;94.10;;;;;;5011092;28;20033;-65
2021/03/07 12:46:56;;;;;;;5.72;2.50;;;6.70;93.40;;;;;;5013255;28;20084;-65
2021/03/07 12:49:22;;;;;;;5.05;2.70;;;6.70;93.50;;;;;;5014255;28;20048;-65
2021/03/07 12:51:47;;;;;;;9.13;2.65;;;6.60;93.40;;;;;;5017417;28;20051;-65
2021/03/07 12:54:13;;;;;;;7.57;3.50;;;6.60;93.40;;;;;;5019286;28;20096;-65
2021/03/07 12:56:39;;;;;;;5.88;2.90;;;6.60;93.20;;;;;;5019090;28;20030;-65
2021/03/07 12:59:04;;;;;;;7.65;2.85;;;6.60;93.40;;;;;;5017671;28;20135;-65
2021/03/07 13:01:30;;;;;;;5.82;2.67;;;6.70;93.30;;;;;;5019706;28;20089;-64
2021/03/07 13:03:56;;;;;;;5.93;2.50;;;6.70;91.40;;;;;;5017727;28;20038;-64